sensor_id;sensor_type;location;lat;lon;timestamp;P1;durP1;ratioP1;P2;durP2;ratioP2
76640;SDS011;65538;50.798;6.064;2022-12-07T00:01:56;57.83;;;24.37;;
76640;SDS011;65538;50.798;6.064;2022-12-07T00:04:21;54.97;;;27.30;;
76640;SDS011;65538;50.798;6.064;2022-12-07T00:06:47;60.23;;;25.83;;
76640;SDS011;65538;50.798;6.064;2022-12-07T00:09:16;54.17;;;26.38;;
76640;SDS011;65538;50.798;6.064;2022-12-07T00:11:41;52.63;;;22.95;;
76640;SDS011;65538;50.798;6.064;2022-12-07T00:14:09;48.67;;;24.25;;
76640;SDS011;65538;50.798;6.064;2022-12-07T00:16:35;54.55;;;26.55;;
76640;SDS011;65538;50.798;6.064;2022-12-07T00:19:00;48.72;;;23.77;;
76640;SDS011;65538;50.798;6.064;2022-12-07T00:21:26;45.10;;;20.25;;
76640;SDS011;65538;50.798;6.064;2022-12-07T00:23:52;49.03;;;22.63;;
76640;SDS011;65538;50.798;6.064;2022-12-07T00:26:19;56.17;;;25.88;;
76640;SDS011;65538;50.798;6.064;2022-12-07T00:28:47;55.38;;;25.65;;
76640;SDS011;65538;50.798;6.064;2022-12-07T00:31:13;56.05;;;25.15;;
76640;SDS011;65538;50.798;6.064;2022-12-07T00:33:39;63.50;;;27.17;;
76640;SDS011;65538;50.798;6.064;2022-12-07T00:36:06;53.90;;;24.60;;
76640;SDS011;65538;50.798;6.064;2022-12-07T00:38:32;68.63;;;34.85;;
76640;SDS011;65538;50.798;6.064;2022-12-07T00:40:58;56.78;;;24.88;;
76640;SDS011;65538;50.798;6.064;2022-12-07T00:43:24;58.20;;;27.13;;
76640;SDS011;65538;50.798;6.064;2022-12-07T00:45:49;59.30;;;26.97;;
76640;SDS011;65538;50.798;6.064;2022-12-07T00:48:15;59.05;;;26.90;;
76640;SDS011;65538;50.798;6.064;2022-12-07T00:50:41;56.10;;;26.10;;
76640;SDS011;65538;50.798;6.064;2022-12-07T00:53:06;54.37;;;27.07;;
76640;SDS011;65538;50.798;6.064;2022-12-07T00:55:34;45.97;;;21.97;;
76640;SDS011;65538;50.798;6.064;2022-12-07T00:58:00;36.35;;;15.57;;
76640;SDS011;65538;50.798;6.064;2022-12-07T01:00:32;47.65;;;20.70;;
76640;SDS011;65538;50.798;6.064;2022-12-07T01:02:58;48.63;;;23.95;;
76640;SDS011;65538;50.798;6.064;2022-12-07T01:05:23;50.93;;;21.60;;
76640;SDS011;65538;50.798;6.064;2022-12-07T01:07:49;47.63;;;23.73;;
76640;SDS011;65538;50.798;6.064;2022-12-07T01:10:14;46.57;;;24.17;;
76640;SDS011;65538;50.798;6.064;2022-12-07T01:12:39;38.03;;;19.25;;
76640;SDS011;65538;50.798;6.064;2022-12-07T01:15:05;52.13;;;25.23;;
76640;SDS011;65538;50.798;6.064;2022-12-07T01:17:34;62.78;;;32.05;;
76640;SDS011;65538;50.798;6.064;2022-12-07T01:19:59;55.83;;;28.02;;
76640;SDS011;65538;50.798;6.064;2022-12-07T01:22:24;46.97;;;25.27;;
76640;SDS011;65538;50.798;6.064;2022-12-07T01:24:49;44.53;;;21.40;;
76640;SDS011;65538;50.798;6.064;2022-12-07T01:27:15;47.97;;;23.03;;
76640;SDS011;65538;50.798;6.064;2022-12-07T01:29:40;51.15;;;24.23;;
76640;SDS011;65538;50.798;6.064;2022-12-07T01:32:05;52.97;;;24.93;;
76640;SDS011;65538;50.798;6.064;2022-12-07T01:34:31;57.50;;;24.13;;
76640;SDS011;65538;50.798;6.064;2022-12-07T01:36:56;53.03;;;23.93;;
76640;SDS011;65538;50.798;6.064;2022-12-07T01:39:22;62.70;;;26.92;;
76640;SDS011;65538;50.798;6.064;2022-12-07T01:41:47;61.42;;;28.30;;
76640;SDS011;65538;50.798;6.064;2022-12-07T01:46:38;67.67;;;29.03;;
76640;SDS011;65538;50.798;6.064;2022-12-07T01:49:04;51.65;;;23.13;;
76640;SDS011;65538;50.798;6.064;2022-12-07T01:51:31;60.97;;;26.52;;
76640;SDS011;65538;50.798;6.064;2022-12-07T01:53:56;58.97;;;25.65;;
76640;SDS011;65538;50.798;6.064;2022-12-07T01:56:23;74.70;;;33.53;;
76640;SDS011;65538;50.798;6.064;2022-12-07T01:59:05;75.20;;;32.38;;
76640;SDS011;65538;50.798;6.064;2022-12-07T02:01:30;72.10;;;32.10;;
76640;SDS011;65538;50.798;6.064;2022-12-07T02:03:58;80.67;;;38.57;;
76640;SDS011;65538;50.798;6.064;2022-12-07T02:06:24;73.38;;;33.53;;
76640;SDS011;65538;50.798;6.064;2022-12-07T02:08:50;54.03;;;23.85;;
76640;SDS011;65538;50.798;6.064;2022-12-07T02:11:15;76.87;;;33.00;;
76640;SDS011;65538;50.798;6.064;2022-12-07T02:13:41;62.22;;;27.10;;
76640;SDS011;65538;50.798;6.064;2022-12-07T02:28:31;75.73;;;35.83;;
76640;SDS011;65538;50.798;6.064;2022-12-07T02:30:58;76.47;;;35.75;;
76640;SDS011;65538;50.798;6.064;2022-12-07T02:33:28;65.40;;;26.00;;
76640;SDS011;65538;50.798;6.064;2022-12-07T02:35:56;85.40;;;39.05;;
76640;SDS011;65538;50.798;6.064;2022-12-07T02:38:42;79.88;;;34.40;;
76640;SDS011;65538;50.798;6.064;2022-12-07T02:41:29;74.78;;;33.30;;
76640;SDS011;65538;50.798;6.064;2022-12-07T02:43:56;75.53;;;37.05;;
76640;SDS011;65538;50.798;6.064;2022-12-07T02:46:23;81.20;;;33.95;;
76640;SDS011;65538;50.798;6.064;2022-12-07T02:48:50;73.13;;;32.30;;
76640;SDS011;65538;50.798;6.064;2022-12-07T02:51:17;79.38;;;30.70;;
76640;SDS011;65538;50.798;6.064;2022-12-07T02:53:42;70.47;;;30.73;;
76640;SDS011;65538;50.798;6.064;2022-12-07T03:04:59;81.20;;;35.17;;
76640;SDS011;65538;50.798;6.064;2022-12-07T03:07:04;82.78;;;35.45;;
76640;SDS011;65538;50.798;6.064;2022-12-07T03:09:36;79.22;;;35.42;;
76640;SDS011;65538;50.798;6.064;2022-12-07T03:12:10;75.38;;;32.33;;
76640;SDS011;65538;50.798;6.064;2022-12-07T03:14:41;86.95;;;37.22;;
76640;SDS011;65538;50.798;6.064;2022-12-07T03:17:12;80.97;;;30.92;;
76640;SDS011;65538;50.798;6.064;2022-12-07T03:19:39;75.78;;;31.48;;
76640;SDS011;65538;50.798;6.064;2022-12-07T03:22:07;79.70;;;38.72;;
76640;SDS011;65538;50.798;6.064;2022-12-07T03:24:38;73.50;;;32.78;;
76640;SDS011;65538;50.798;6.064;2022-12-07T03:27:47;76.20;;;32.45;;
76640;SDS011;65538;50.798;6.064;2022-12-07T03:29:58;74.72;;;32.38;;
76640;SDS011;65538;50.798;6.064;2022-12-07T03:32:35;59.50;;;22.23;;
76640;SDS011;65538;50.798;6.064;2022-12-07T03:35:03;68.25;;;28.08;;
76640;SDS011;65538;50.798;6.064;2022-12-07T03:37:30;72.95;;;35.00;;
76640;SDS011;65538;50.798;6.064;2022-12-07T03:39:59;75.88;;;32.15;;
76640;SDS011;65538;50.798;6.064;2022-12-07T03:42:26;79.90;;;39.03;;
76640;SDS011;65538;50.798;6.064;2022-12-07T03:44:52;69.30;;;31.40;;
76640;SDS011;65538;50.798;6.064;2022-12-07T03:47:29;71.07;;;30.00;;
76640;SDS011;65538;50.798;6.064;2022-12-07T03:50:06;75.70;;;30.67;;
76640;SDS011;65538;50.798;6.064;2022-12-07T03:55:02;74.68;;;31.98;;
76640;SDS011;65538;50.798;6.064;2022-12-07T03:57:29;69.22;;;27.60;;
76640;SDS011;65538;50.798;6.064;2022-12-07T03:59:55;72.43;;;32.30;;
76640;SDS011;65538;50.798;6.064;2022-12-07T04:02:21;57.08;;;24.25;;
76640;SDS011;65538;50.798;6.064;2022-12-07T04:04:47;63.85;;;28.58;;
76640;SDS011;65538;50.798;6.064;2022-12-07T04:07:18;67.83;;;25.60;;
76640;SDS011;65538;50.798;6.064;2022-12-07T04:09:44;56.85;;;22.95;;
76640;SDS011;65538;50.798;6.064;2022-12-07T04:12:09;78.32;;;35.00;;
76640;SDS011;65538;50.798;6.064;2022-12-07T04:14:35;74.27;;;30.87;;
76640;SDS011;65538;50.798;6.064;2022-12-07T04:17:00;74.87;;;31.83;;
76640;SDS011;65538;50.798;6.064;2022-12-07T04:19:29;72.93;;;29.53;;
76640;SDS011;65538;50.798;6.064;2022-12-07T04:21:55;62.53;;;28.13;;
76640;SDS011;65538;50.798;6.064;2022-12-07T04:24:21;75.80;;;34.60;;
76640;SDS011;65538;50.798;6.064;2022-12-07T04:26:46;84.32;;;35.78;;
76640;SDS011;65538;50.798;6.064;2022-12-07T04:29:12;82.67;;;30.97;;
76640;SDS011;65538;50.798;6.064;2022-12-07T04:31:37;79.63;;;31.25;;
76640;SDS011;65538;50.798;6.064;2022-12-07T04:34:03;72.63;;;33.22;;
76640;SDS011;65538;50.798;6.064;2022-12-07T04:36:29;81.53;;;30.73;;
76640;SDS011;65538;50.798;6.064;2022-12-07T04:38:54;67.07;;;26.67;;
76640;SDS011;65538;50.798;6.064;2022-12-07T04:41:20;72.10;;;28.85;;
76640;SDS011;65538;50.798;6.064;2022-12-07T04:43:51;79.07;;;30.83;;
76640;SDS011;65538;50.798;6.064;2022-12-07T04:46:17;82.20;;;36.93;;
76640;SDS011;65538;50.798;6.064;2022-12-07T04:48:42;80.93;;;31.30;;
76640;SDS011;65538;50.798;6.064;2022-12-07T04:51:07;72.73;;;29.43;;
76640;SDS011;65538;50.798;6.064;2022-12-07T04:56:02;78.65;;;32.05;;
76640;SDS011;65538;50.798;6.064;2022-12-07T04:58:27;75.17;;;30.90;;
76640;SDS011;65538;50.798;6.064;2022-12-07T05:00:53;65.47;;;24.33;;
76640;SDS011;65538;50.798;6.064;2022-12-07T05:03:19;80.68;;;27.05;;
76640;SDS011;65538;50.798;6.064;2022-12-07T05:05:44;81.27;;;33.27;;
76640;SDS011;65538;50.798;6.064;2022-12-07T05:08:09;71.40;;;28.53;;
76640;SDS011;65538;50.798;6.064;2022-12-07T05:10:35;77.27;;;27.13;;
76640;SDS011;65538;50.798;6.064;2022-12-07T05:13:00;77.37;;;30.83;;
76640;SDS011;65538;50.798;6.064;2022-12-07T05:15:25;67.47;;;26.47;;
76640;SDS011;65538;50.798;6.064;2022-12-07T05:17:51;67.23;;;26.67;;
76640;SDS011;65538;50.798;6.064;2022-12-07T05:20:17;75.55;;;26.35;;
76640;SDS011;65538;50.798;6.064;2022-12-07T05:22:42;60.72;;;22.92;;
76640;SDS011;65538;50.798;6.064;2022-12-07T05:25:15;62.35;;;26.65;;
76640;SDS011;65538;50.798;6.064;2022-12-07T05:27:40;69.27;;;32.60;;
76640;SDS011;65538;50.798;6.064;2022-12-07T05:30:06;53.17;;;20.75;;
76640;SDS011;65538;50.798;6.064;2022-12-07T05:32:31;61.40;;;23.13;;
76640;SDS011;65538;50.798;6.064;2022-12-07T05:34:57;57.23;;;24.70;;
76640;SDS011;65538;50.798;6.064;2022-12-07T05:37:22;62.67;;;24.60;;
76640;SDS011;65538;50.798;6.064;2022-12-07T05:39:48;61.25;;;23.98;;
76640;SDS011;65538;50.798;6.064;2022-12-07T05:42:13;61.83;;;23.37;;
76640;SDS011;65538;50.798;6.064;2022-12-07T05:44:59;59.90;;;26.47;;
76640;SDS011;65538;50.798;6.064;2022-12-07T05:47:40;42.33;;;17.42;;
76640;SDS011;65538;50.798;6.064;2022-12-07T05:50:06;44.95;;;20.45;;
76640;SDS011;65538;50.798;6.064;2022-12-07T05:52:31;36.72;;;16.75;;
76640;SDS011;65538;50.798;6.064;2022-12-07T05:54:57;56.85;;;23.70;;
76640;SDS011;65538;50.798;6.064;2022-12-07T05:57:22;62.45;;;28.55;;
76640;SDS011;65538;50.798;6.064;2022-12-07T06:16:25;58.38;;;23.83;;
76640;SDS011;65538;50.798;6.064;2022-12-07T06:18:53;58.03;;;23.60;;
76640;SDS011;65538;50.798;6.064;2022-12-07T06:21:50;64.03;;;26.08;;
76640;SDS011;65538;50.798;6.064;2022-12-07T06:24:16;56.10;;;21.85;;
76640;SDS011;65538;50.798;6.064;2022-12-07T06:26:47;50.35;;;21.80;;
76640;SDS011;65538;50.798;6.064;2022-12-07T06:29:19;59.63;;;22.85;;
76640;SDS011;65538;50.798;6.064;2022-12-07T06:38:05;56.47;;;23.13;;
76640;SDS011;65538;50.798;6.064;2022-12-07T06:43:24;60.70;;;23.20;;
76640;SDS011;65538;50.798;6.064;2022-12-07T06:45:55;66.63;;;25.83;;
76640;SDS011;65538;50.798;6.064;2022-12-07T06:51:10;62.83;;;23.98;;
76640;SDS011;65538;50.798;6.064;2022-12-07T06:53:41;58.20;;;23.70;;
76640;SDS011;65538;50.798;6.064;2022-12-07T06:56:27;53.58;;;21.83;;
76640;SDS011;65538;50.798;6.064;2022-12-07T06:58:58;52.33;;;19.85;;
76640;SDS011;65538;50.798;6.064;2022-12-07T07:01:38;53.03;;;22.10;;
76640;SDS011;65538;50.798;6.064;2022-12-07T07:26:04;64.25;;;25.55;;
76640;SDS011;65538;50.798;6.064;2022-12-07T07:56:35;58.53;;;25.17;;
76640;SDS011;65538;50.798;6.064;2022-12-07T07:59:03;49.08;;;23.30;;
76640;SDS011;65538;50.798;6.064;2022-12-07T08:01:47;53.45;;;20.48;;
76640;SDS011;65538;50.798;6.064;2022-12-07T08:04:31;53.40;;;20.67;;
76640;SDS011;65538;50.798;6.064;2022-12-07T08:07:27;39.78;;;18.42;;
76640;SDS011;65538;50.798;6.064;2022-12-07T08:23:01;32.47;;;12.70;;
76640;SDS011;65538;50.798;6.064;2022-12-07T08:25:16;28.08;;;13.90;;
76640;SDS011;65538;50.798;6.064;2022-12-07T08:28:03;26.35;;;11.18;;
76640;SDS011;65538;50.798;6.064;2022-12-07T08:36:48;23.90;;;10.75;;
76640;SDS011;65538;50.798;6.064;2022-12-07T08:44:49;28.27;;;12.73;;
76640;SDS011;65538;50.798;6.064;2022-12-07T08:47:15;25.70;;;9.82;;
76640;SDS011;65538;50.798;6.064;2022-12-07T08:49:41;28.23;;;12.40;;
76640;SDS011;65538;50.798;6.064;2022-12-07T08:52:06;26.63;;;11.23;;
76640;SDS011;65538;50.798;6.064;2022-12-07T08:54:33;30.70;;;14.43;;
76640;SDS011;65538;50.798;6.064;2022-12-07T08:56:59;39.35;;;16.02;;
76640;SDS011;65538;50.798;6.064;2022-12-07T08:59:25;41.90;;;18.27;;
76640;SDS011;65538;50.798;6.064;2022-12-07T09:01:51;33.72;;;13.43;;
76640;SDS011;65538;50.798;6.064;2022-12-07T09:04:16;48.43;;;22.13;;
76640;SDS011;65538;50.798;6.064;2022-12-07T09:06:59;52.87;;;26.03;;
76640;SDS011;65538;50.798;6.064;2022-12-07T09:09:25;48.08;;;21.90;;
76640;SDS011;65538;50.798;6.064;2022-12-07T09:11:50;54.37;;;19.53;;
76640;SDS011;65538;50.798;6.064;2022-12-07T09:14:15;52.57;;;20.53;;
76640;SDS011;65538;50.798;6.064;2022-12-07T09:17:00;39.53;;;15.93;;
76640;SDS011;65538;50.798;6.064;2022-12-07T09:19:29;46.35;;;18.70;;
76640;SDS011;65538;50.798;6.064;2022-12-07T09:28:13;39.67;;;15.93;;
76640;SDS011;65538;50.798;6.064;2022-12-07T09:31:02;34.75;;;14.32;;
76640;SDS011;65538;50.798;6.064;2022-12-07T09:46:15;49.55;;;19.40;;
76640;SDS011;65538;50.798;6.064;2022-12-07T09:49:03;33.47;;;14.55;;
76640;SDS011;65538;50.798;6.064;2022-12-07T09:51:39;39.47;;;18.63;;
76640;SDS011;65538;50.798;6.064;2022-12-07T09:54:08;34.92;;;14.98;;
76640;SDS011;65538;50.798;6.064;2022-12-07T09:56:40;38.03;;;17.20;;
76640;SDS011;65538;50.798;6.064;2022-12-07T09:59:20;37.72;;;19.55;;
76640;SDS011;65538;50.798;6.064;2022-12-07T10:01:48;36.28;;;15.05;;
76640;SDS011;65538;50.798;6.064;2022-12-07T10:04:18;37.85;;;15.85;;
76640;SDS011;65538;50.798;6.064;2022-12-07T10:06:45;46.55;;;20.73;;
76640;SDS011;65538;50.798;6.064;2022-12-07T10:09:13;53.38;;;27.48;;
76640;SDS011;65538;50.798;6.064;2022-12-07T10:11:58;50.72;;;21.35;;
76640;SDS011;65538;50.798;6.064;2022-12-07T10:14:23;51.70;;;23.23;;
76640;SDS011;65538;50.798;6.064;2022-12-07T10:16:54;46.80;;;19.77;;
76640;SDS011;65538;50.798;6.064;2022-12-07T10:19:24;42.05;;;17.13;;
76640;SDS011;65538;50.798;6.064;2022-12-07T10:22:01;44.15;;;20.50;;
76640;SDS011;65538;50.798;6.064;2022-12-07T10:24:34;51.20;;;22.85;;
76640;SDS011;65538;50.798;6.064;2022-12-07T10:26:59;23.90;;;11.05;;
76640;SDS011;65538;50.798;6.064;2022-12-07T10:29:29;31.88;;;15.48;;
76640;SDS011;65538;50.798;6.064;2022-12-07T10:34:34;46.63;;;24.10;;
76640;SDS011;65538;50.798;6.064;2022-12-07T10:39:55;44.03;;;22.25;;
76640;SDS011;65538;50.798;6.064;2022-12-07T10:42:42;39.00;;;18.65;;
76640;SDS011;65538;50.798;6.064;2022-12-07T10:45:30;45.15;;;22.40;;
76640;SDS011;65538;50.798;6.064;2022-12-07T10:48:05;43.15;;;23.88;;
76640;SDS011;65538;50.798;6.064;2022-12-07T10:53:52;31.65;;;12.63;;
76640;SDS011;65538;50.798;6.064;2022-12-07T11:17:14;28.20;;;11.73;;
76640;SDS011;65538;50.798;6.064;2022-12-07T11:22:55;39.75;;;16.15;;
76640;SDS011;65538;50.798;6.064;2022-12-07T11:28:22;34.08;;;16.17;;
76640;SDS011;65538;50.798;6.064;2022-12-07T11:30:57;34.50;;;16.80;;
76640;SDS011;65538;50.798;6.064;2022-12-07T11:42:06;27.70;;;13.43;;
76640;SDS011;65538;50.798;6.064;2022-12-07T11:44:39;32.63;;;17.58;;
76640;SDS011;65538;50.798;6.064;2022-12-07T11:49:45;32.13;;;15.68;;
76640;SDS011;65538;50.798;6.064;2022-12-07T11:54:58;20.35;;;8.90;;
76640;SDS011;65538;50.798;6.064;2022-12-07T11:57:28;25.02;;;12.77;;
76640;SDS011;65538;50.798;6.064;2022-12-07T11:59:59;25.83;;;12.23;;
76640;SDS011;65538;50.798;6.064;2022-12-07T12:05:24;19.48;;;9.45;;
76640;SDS011;65538;50.798;6.064;2022-12-07T12:08:13;25.80;;;10.57;;
76640;SDS011;65538;50.798;6.064;2022-12-07T12:21:02;21.13;;;8.90;;
76640;SDS011;65538;50.798;6.064;2022-12-07T12:25:55;24.83;;;13.10;;
76640;SDS011;65538;50.798;6.064;2022-12-07T12:28:33;24.27;;;12.45;;
76640;SDS011;65538;50.798;6.064;2022-12-07T12:33:32;22.08;;;9.57;;
76640;SDS011;65538;50.798;6.064;2022-12-07T12:44:08;23.75;;;9.50;;
76640;SDS011;65538;50.798;6.064;2022-12-07T12:51:49;15.85;;;7.03;;
76640;SDS011;65538;50.798;6.064;2022-12-07T12:56:43;18.33;;;7.95;;
76640;SDS011;65538;50.798;6.064;2022-12-07T12:59:33;17.65;;;7.80;;
76640;SDS011;65538;50.798;6.064;2022-12-07T13:04:38;17.73;;;8.80;;
76640;SDS011;65538;50.798;6.064;2022-12-07T13:07:08;20.33;;;11.18;;
76640;SDS011;65538;50.798;6.064;2022-12-07T13:09:35;15.15;;;7.35;;
76640;SDS011;65538;50.798;6.064;2022-12-07T13:12:02;18.77;;;9.15;;
76640;SDS011;65538;50.798;6.064;2022-12-07T13:19:57;19.88;;;8.85;;
76640;SDS011;65538;50.798;6.064;2022-12-07T13:24:58;17.75;;;8.27;;
76640;SDS011;65538;50.798;6.064;2022-12-07T13:27:25;16.30;;;6.85;;
76640;SDS011;65538;50.798;6.064;2022-12-07T13:29:50;23.42;;;11.63;;
76640;SDS011;65538;50.798;6.064;2022-12-07T13:32:25;15.50;;;7.60;;
76640;SDS011;65538;50.798;6.064;2022-12-07T13:34:50;17.10;;;8.30;;
76640;SDS011;65538;50.798;6.064;2022-12-07T13:39:51;18.45;;;8.73;;
76640;SDS011;65538;50.798;6.064;2022-12-07T13:42:22;18.02;;;9.82;;
76640;SDS011;65538;50.798;6.064;2022-12-07T13:44:49;28.60;;;10.15;;
76640;SDS011;65538;50.798;6.064;2022-12-07T13:47:20;20.07;;;9.87;;
76640;SDS011;65538;50.798;6.064;2022-12-07T13:49:54;16.42;;;8.95;;
76640;SDS011;65538;50.798;6.064;2022-12-07T13:54:45;20.90;;;10.40;;
76640;SDS011;65538;50.798;6.064;2022-12-07T13:57:11;22.52;;;10.80;;
76640;SDS011;65538;50.798;6.064;2022-12-07T13:59:36;20.25;;;9.10;;
76640;SDS011;65538;50.798;6.064;2022-12-07T14:02:16;14.40;;;7.57;;
76640;SDS011;65538;50.798;6.064;2022-12-07T14:04:42;18.60;;;9.65;;
76640;SDS011;65538;50.798;6.064;2022-12-07T14:10:02;10.13;;;5.30;;
76640;SDS011;65538;50.798;6.064;2022-12-07T14:12:28;20.20;;;9.20;;
76640;SDS011;65538;50.798;6.064;2022-12-07T14:14:54;18.83;;;10.45;;
76640;SDS011;65538;50.798;6.064;2022-12-07T14:17:21;16.83;;;9.15;;
76640;SDS011;65538;50.798;6.064;2022-12-07T14:22:20;20.00;;;9.83;;
76640;SDS011;65538;50.798;6.064;2022-12-07T14:24:46;20.08;;;9.77;;
76640;SDS011;65538;50.798;6.064;2022-12-07T14:27:22;17.87;;;8.73;;
76640;SDS011;65538;50.798;6.064;2022-12-07T14:29:48;18.48;;;9.35;;
76640;SDS011;65538;50.798;6.064;2022-12-07T14:37:29;17.90;;;8.63;;
76640;SDS011;65538;50.798;6.064;2022-12-07T14:39:54;16.40;;;9.48;;
76640;SDS011;65538;50.798;6.064;2022-12-07T14:42:20;16.23;;;7.57;;
76640;SDS011;65538;50.798;6.064;2022-12-07T14:44:46;21.95;;;9.23;;
76640;SDS011;65538;50.798;6.064;2022-12-07T14:47:11;18.27;;;9.43;;
76640;SDS011;65538;50.798;6.064;2022-12-07T14:49:36;14.53;;;7.47;;
76640;SDS011;65538;50.798;6.064;2022-12-07T14:52:01;20.63;;;8.70;;
76640;SDS011;65538;50.798;6.064;2022-12-07T14:54:27;21.13;;;8.90;;
76640;SDS011;65538;50.798;6.064;2022-12-07T14:56:55;14.15;;;7.65;;
76640;SDS011;65538;50.798;6.064;2022-12-07T14:59:21;17.20;;;9.43;;
76640;SDS011;65538;50.798;6.064;2022-12-07T15:01:46;15.67;;;8.83;;
76640;SDS011;65538;50.798;6.064;2022-12-07T15:04:11;17.05;;;8.73;;
76640;SDS011;65538;50.798;6.064;2022-12-07T15:06:37;15.53;;;8.03;;
76640;SDS011;65538;50.798;6.064;2022-12-07T15:09:02;18.70;;;8.53;;
76640;SDS011;65538;50.798;6.064;2022-12-07T15:11:27;17.98;;;8.60;;
76640;SDS011;65538;50.798;6.064;2022-12-07T15:13:53;19.47;;;8.70;;
76640;SDS011;65538;50.798;6.064;2022-12-07T15:16:34;18.08;;;7.13;;
76640;SDS011;65538;50.798;6.064;2022-12-07T15:19:00;15.25;;;7.18;;
76640;SDS011;65538;50.798;6.064;2022-12-07T15:21:25;18.38;;;8.00;;
76640;SDS011;65538;50.798;6.064;2022-12-07T15:23:50;14.90;;;6.43;;
76640;SDS011;65538;50.798;6.064;2022-12-07T15:26:16;17.50;;;6.47;;
76640;SDS011;65538;50.798;6.064;2022-12-07T15:28:41;14.17;;;6.30;;
76640;SDS011;65538;50.798;6.064;2022-12-07T15:31:11;16.20;;;7.00;;
76640;SDS011;65538;50.798;6.064;2022-12-07T15:33:36;15.25;;;6.30;;
76640;SDS011;65538;50.798;6.064;2022-12-07T15:36:01;15.57;;;7.60;;
76640;SDS011;65538;50.798;6.064;2022-12-07T15:38:26;22.40;;;7.97;;
76640;SDS011;65538;50.798;6.064;2022-12-07T15:40:53;16.70;;;8.15;;
76640;SDS011;65538;50.798;6.064;2022-12-07T15:43:18;17.40;;;7.53;;
76640;SDS011;65538;50.798;6.064;2022-12-07T15:46:02;17.02;;;7.22;;
76640;SDS011;65538;50.798;6.064;2022-12-07T15:48:27;18.77;;;7.07;;
76640;SDS011;65538;50.798;6.064;2022-12-07T15:50:53;15.07;;;6.83;;
76640;SDS011;65538;50.798;6.064;2022-12-07T15:53:18;18.37;;;7.57;;
76640;SDS011;65538;50.798;6.064;2022-12-07T15:55:43;21.20;;;7.90;;
76640;SDS011;65538;50.798;6.064;2022-12-07T15:58:08;18.03;;;8.17;;
76640;SDS011;65538;50.798;6.064;2022-12-07T16:00:34;28.90;;;7.33;;
76640;SDS011;65538;50.798;6.064;2022-12-07T16:02:59;18.90;;;7.70;;
76640;SDS011;65538;50.798;6.064;2022-12-07T16:05:24;15.73;;;5.03;;
76640;SDS011;65538;50.798;6.064;2022-12-07T16:07:49;17.23;;;6.33;;
76640;SDS011;65538;50.798;6.064;2022-12-07T16:10:16;19.47;;;6.80;;
76640;SDS011;65538;50.798;6.064;2022-12-07T16:12:41;16.90;;;7.50;;
76640;SDS011;65538;50.798;6.064;2022-12-07T16:15:06;14.17;;;6.57;;
76640;SDS011;65538;50.798;6.064;2022-12-07T16:17:32;18.45;;;8.50;;
76640;SDS011;65538;50.798;6.064;2022-12-07T16:19:58;19.50;;;6.73;;
76640;SDS011;65538;50.798;6.064;2022-12-07T16:22:23;14.55;;;6.03;;
76640;SDS011;65538;50.798;6.064;2022-12-07T16:24:49;8.20;;;4.47;;
76640;SDS011;65538;50.798;6.064;2022-12-07T16:27:14;15.50;;;7.23;;
76640;SDS011;65538;50.798;6.064;2022-12-07T16:29:39;14.23;;;7.45;;
76640;SDS011;65538;50.798;6.064;2022-12-07T16:32:05;15.30;;;7.20;;
76640;SDS011;65538;50.798;6.064;2022-12-07T16:34:30;14.10;;;6.60;;
76640;SDS011;65538;50.798;6.064;2022-12-07T16:36:55;15.03;;;6.37;;
76640;SDS011;65538;50.798;6.064;2022-12-07T16:39:20;14.30;;;7.57;;
76640;SDS011;65538;50.798;6.064;2022-12-07T16:41:45;16.47;;;7.67;;
76640;SDS011;65538;50.798;6.064;2022-12-07T16:44:11;20.43;;;8.53;;
76640;SDS011;65538;50.798;6.064;2022-12-07T16:46:37;13.88;;;6.65;;
76640;SDS011;65538;50.798;6.064;2022-12-07T16:49:02;16.43;;;8.00;;
76640;SDS011;65538;50.798;6.064;2022-12-07T16:51:28;16.88;;;7.93;;
76640;SDS011;65538;50.798;6.064;2022-12-07T16:53:53;16.15;;;6.40;;
76640;SDS011;65538;50.798;6.064;2022-12-07T16:56:18;16.95;;;7.57;;
76640;SDS011;65538;50.798;6.064;2022-12-07T16:58:44;17.70;;;8.97;;
76640;SDS011;65538;50.798;6.064;2022-12-07T17:01:11;14.15;;;6.90;;
76640;SDS011;65538;50.798;6.064;2022-12-07T17:03:37;12.23;;;5.68;;
76640;SDS011;65538;50.798;6.064;2022-12-07T17:06:02;18.63;;;7.85;;
76640;SDS011;65538;50.798;6.064;2022-12-07T17:08:27;14.47;;;7.57;;
76640;SDS011;65538;50.798;6.064;2022-12-07T17:10:53;15.67;;;7.40;;
76640;SDS011;65538;50.798;6.064;2022-12-07T17:13:18;13.83;;;6.93;;
76640;SDS011;65538;50.798;6.064;2022-12-07T17:16:03;20.10;;;9.35;;
76640;SDS011;65538;50.798;6.064;2022-12-07T17:18:33;17.65;;;9.48;;
76640;SDS011;65538;50.798;6.064;2022-12-07T17:21:05;14.98;;;8.05;;
76640;SDS011;65538;50.798;6.064;2022-12-07T17:23:31;20.60;;;9.98;;
76640;SDS011;65538;50.798;6.064;2022-12-07T17:25:56;23.70;;;11.45;;
76640;SDS011;65538;50.798;6.064;2022-12-07T17:28:28;19.13;;;10.82;;
76640;SDS011;65538;50.798;6.064;2022-12-07T17:30:53;31.57;;;13.30;;
76640;SDS011;65538;50.798;6.064;2022-12-07T17:33:18;26.30;;;12.27;;
76640;SDS011;65538;50.798;6.064;2022-12-07T17:35:44;27.73;;;13.27;;
76640;SDS011;65538;50.798;6.064;2022-12-07T17:38:10;22.30;;;12.10;;
76640;SDS011;65538;50.798;6.064;2022-12-07T17:40:35;23.63;;;12.67;;
76640;SDS011;65538;50.798;6.064;2022-12-07T17:43:00;25.33;;;13.07;;
76640;SDS011;65538;50.798;6.064;2022-12-07T17:45:25;30.43;;;12.00;;
76640;SDS011;65538;50.798;6.064;2022-12-07T17:47:51;25.50;;;11.40;;
76640;SDS011;65538;50.798;6.064;2022-12-07T17:50:16;24.20;;;13.13;;
76640;SDS011;65538;50.798;6.064;2022-12-07T17:53:01;21.95;;;10.73;;
76640;SDS011;65538;50.798;6.064;2022-12-07T17:55:36;25.85;;;11.50;;
76640;SDS011;65538;50.798;6.064;2022-12-07T17:58:01;19.20;;;9.27;;
76640;SDS011;65538;50.798;6.064;2022-12-07T18:00:26;17.37;;;7.10;;
76640;SDS011;65538;50.798;6.064;2022-12-07T18:02:51;22.83;;;9.80;;
76640;SDS011;65538;50.798;6.064;2022-12-07T18:05:17;19.57;;;10.53;;
76640;SDS011;65538;50.798;6.064;2022-12-07T18:07:42;16.90;;;10.20;;
76640;SDS011;65538;50.798;6.064;2022-12-07T18:10:07;19.63;;;10.60;;
76640;SDS011;65538;50.798;6.064;2022-12-07T18:12:33;20.15;;;9.55;;
76640;SDS011;65538;50.798;6.064;2022-12-07T18:15:02;24.98;;;11.00;;
76640;SDS011;65538;50.798;6.064;2022-12-07T18:17:46;19.00;;;9.45;;
76640;SDS011;65538;50.798;6.064;2022-12-07T18:20:18;19.42;;;9.68;;
76640;SDS011;65538;50.798;6.064;2022-12-07T18:26:16;17.42;;;7.60;;
76640;SDS011;65538;50.798;6.064;2022-12-07T18:31:42;14.57;;;6.95;;
76640;SDS011;65538;50.798;6.064;2022-12-07T18:37:31;16.95;;;8.60;;
76640;SDS011;65538;50.798;6.064;2022-12-07T18:39:59;19.88;;;9.35;;
76640;SDS011;65538;50.798;6.064;2022-12-07T18:43:02;18.33;;;9.30;;
76640;SDS011;65538;50.798;6.064;2022-12-07T18:51:47;21.27;;;8.70;;
76640;SDS011;65538;50.798;6.064;2022-12-07T18:54:18;23.30;;;9.50;;
76640;SDS011;65538;50.798;6.064;2022-12-07T18:56:49;18.92;;;10.30;;
76640;SDS011;65538;50.798;6.064;2022-12-07T19:02:23;17.38;;;9.68;;
76640;SDS011;65538;50.798;6.064;2022-12-07T19:04:51;20.88;;;9.93;;
76640;SDS011;65538;50.798;6.064;2022-12-07T19:07:26;20.92;;;10.50;;
76640;SDS011;65538;50.798;6.064;2022-12-07T19:10:07;15.93;;;9.35;;
76640;SDS011;65538;50.798;6.064;2022-12-07T19:15:27;22.67;;;9.85;;
76640;SDS011;65538;50.798;6.064;2022-12-07T19:17:52;19.95;;;10.23;;